sensor_id;sensor_type;location;lat;lon;timestamp;pressure;altitude;pressure_sealevel;temperature;humidity
42587;BME280;28216;53.362;-6.288;2023-02-01T00:01:33;102163.34;;;6.03;100.00
42587;BME280;28216;53.362;-6.288;2023-02-01T00:03:58;102163.34;;;6.03;100.00
42587;BME280;28216;53.362;-6.288;2023-02-01T00:06:24;102150.34;;;6.03;100.00
42587;BME280;28216;53.362;-6.288;2023-02-01T00:08:52;102152.19;;;6.01;100.00
42587;BME280;28216;53.362;-6.288;2023-02-01T00:11:18;102149.59;;;6.01;100.00
42587;BME280;28216;53.362;-6.288;2023-02-01T00:13:44;102145.22;;;6.02;100.00
42587;BME280;28216;53.362;-6.288;2023-02-01T00:18:39;102151.66;;;5.96;100.00
42587;BME280;28216;53.362;-6.288;2023-02-01T00:21:05;102136.13;;;5.95;100.00
42587;BME280;28216;53.362;-6.288;2023-02-01T00:23:35;102152.56;;;5.95;100.00
42587;BME280;28216;53.362;-6.288;2023-02-01T00:26:02;102148.28;;;5.94;100.00
42587;BME280;28216;53.362;-6.288;2023-02-01T00:28:28;102147.38;;;5.95;100.00
42587;BME280;28216;53.362;-6.288;2023-02-01T00:31:01;102156.00;;;5.96;100.00
42587;BME280;28216;53.362;-6.288;2023-02-01T00:33:27;102156.00;;;5.96;100.00
42587;BME280;28216;53.362;-6.288;2023-02-01T00:36:00;102155.19;;;5.95;100.00
42587;BME280;28216;53.362;-6.288;2023-02-01T00:38:27;102160.44;;;5.94;100.00
42587;BME280;28216;53.362;-6.288;2023-02-01T00:40:53;102149.03;;;5.96;100.00
42587;BME280;28216;53.362;-6.288;2023-02-01T00:43:21;102147.19;;;5.98;100.00
42587;BME280;28216;53.362;-6.288;2023-02-01T00:45:47;102148.94;;;5.98;100.00
42587;BME280;28216;53.362;-6.288;2023-02-01T00:48:12;102160.00;;;6.01;100.00
42587;BME280;28216;53.362;-6.288;2023-02-01T00:50:42;102172.84;;;6.04;100.00
42587;BME280;28216;53.362;-6.288;2023-02-01T00:53:08;102155.44;;;6.05;100.00
42587;BME280;28216;53.362;-6.288;2023-02-01T00:55:34;102156.09;;;6.09;100.00
42587;BME280;28216;53.362;-6.288;2023-02-01T00:57:59;102162.88;;;6.11;100.00
42587;BME280;28216;53.362;-6.288;2023-02-01T01:00:25;102152.66;;;6.08;100.00
42587;BME280;28216;53.362;-6.288;2023-02-01T01:02:51;102166.50;;;6.09;100.00
42587;BME280;28216;53.362;-6.288;2023-02-01T01:05:16;102161.84;;;6.14;100.00
42587;BME280;28216;53.362;-6.288;2023-02-01T01:07:41;102155.31;;;6.21;100.00
42587;BME280;28216;53.362;-6.288;2023-02-01T01:10:07;102156.97;;;6.22;100.00
42587;BME280;28216;53.362;-6.288;2023-02-01T01:12:33;102152.72;;;6.21;100.00
42587;BME280;28216;53.362;-6.288;2023-02-01T01:14:58;102154.66;;;6.17;100.00
42587;BME280;28216;53.362;-6.288;2023-02-01T01:17:24;102163.41;;;6.16;100.00
42587;BME280;28216;53.362;-6.288;2023-02-01T01:19:49;102153.09;;;6.15;100.00
42587;BME280;28216;53.362;-6.288;2023-02-01T01:22:14;102154.88;;;6.14;100.00
42587;BME280;28216;53.362;-6.288;2023-02-01T01:24:40;102157.38;;;6.16;100.00
42587;BME280;28216;53.362;-6.288;2023-02-01T01:27:05;102152.25;;;6.14;100.00
42587;BME280;28216;53.362;-6.288;2023-02-01T01:29:31;102153.19;;;6.13;100.00
42587;BME280;28216;53.362;-6.288;2023-02-01T01:31:56;102159.44;;;6.11;100.00
42587;BME280;28216;53.362;-6.288;2023-02-01T01:34:21;102152.66;;;6.08;100.00
42587;BME280;28216;53.362;-6.288;2023-02-01T01:36:47;102152.94;;;6.03;100.00
42587;BME280;28216;53.362;-6.288;2023-02-01T01:39:12;102151.34;;;6.01;100.00
42587;BME280;28216;53.362;-6.288;2023-02-01T01:41:38;102152.84;;;6.05;100.00
42587;BME280;28216;53.362;-6.288;2023-02-01T01:44:05;102152.44;;;6.11;100.00
42587;BME280;28216;53.362;-6.288;2023-02-01T01:46:36;102146.03;;;6.17;100.00
42587;BME280;28216;53.362;-6.288;2023-02-01T01:49:13;102146.47;;;6.23;100.00
42587;BME280;28216;53.362;-6.288;2023-02-01T01:51:45;102149.81;;;6.25;100.00
42587;BME280;28216;53.362;-6.288;2023-02-01T01:54:29;102148.25;;;6.23;100.00
42587;BME280;28216;53.362;-6.288;2023-02-01T01:57:01;102142.47;;;6.18;100.00
42587;BME280;28216;53.362;-6.288;2023-02-01T01:59:31;102134.88;;;6.15;100.00
42587;BME280;28216;53.362;-6.288;2023-02-01T02:01:57;102133.28;;;6.12;100.00
42587;BME280;28216;53.362;-6.288;2023-02-01T02:04:24;102132.66;;;6.09;100.00
42587;BME280;28216;53.362;-6.288;2023-02-01T02:06:54;102128.66;;;6.03;100.00
42587;BME280;28216;53.362;-6.288;2023-02-01T02:09:21;102132.19;;;6.02;100.00
42587;BME280;28216;53.362;-6.288;2023-02-01T02:11:47;102120.13;;;6.01;100.00
42587;BME280;28216;53.362;-6.288;2023-02-01T02:14:15;102131.56;;;5.98;100.00
42587;BME280;28216;53.362;-6.288;2023-02-01T02:22:40;102133.59;;;5.93;100.00
42587;BME280;28216;53.362;-6.288;2023-02-01T02:25:42;102132.75;;;5.93;100.00
42587;BME280;28216;53.362;-6.288;2023-02-01T02:43:21;102124.75;;;5.82;100.00
42587;BME280;28216;53.362;-6.288;2023-02-01T02:46:08;102131.63;;;5.83;100.00
42587;BME280;28216;53.362;-6.288;2023-02-01T02:49:12;102133.28;;;5.84;100.00
42587;BME280;28216;53.362;-6.288;2023-02-01T02:54:37;102131.41;;;5.86;100.00
42587;BME280;28216;53.362;-6.288;2023-02-01T02:57:29;102121.84;;;5.86;100.00
42587;BME280;28216;53.362;-6.288;2023-02-01T03:00:18;102123.53;;;5.87;100.00
42587;BME280;28216;53.362;-6.288;2023-02-01T03:03:03;102120.91;;;5.87;100.00
42587;BME280;28216;53.362;-6.288;2023-02-01T03:05:49;102104.38;;;5.88;100.00
42587;BME280;28216;53.362;-6.288;2023-02-01T03:08:22;102101.84;;;5.87;100.00
42587;BME280;28216;53.362;-6.288;2023-02-01T03:16:18;102097.50;;;5.87;100.00
42587;BME280;28216;53.362;-6.288;2023-02-01T03:21:41;102110.34;;;5.90;100.00
42587;BME280;28216;53.362;-6.288;2023-02-01T03:24:20;102114.63;;;5.91;100.00
42587;BME280;28216;53.362;-6.288;2023-02-01T03:26:54;102104.22;;;5.91;100.00
42587;BME280;28216;53.362;-6.288;2023-02-01T03:29:28;102104.38;;;5.88;100.00
42587;BME280;28216;53.362;-6.288;2023-02-01T03:31:55;102117.38;;;5.88;100.00
42587;BME280;28216;53.362;-6.288;2023-02-01T03:34:21;102113.94;;;5.88;100.00
42587;BME280;28216;53.362;-6.288;2023-02-01T03:37:02;102108.75;;;5.88;100.00
42587;BME280;28216;53.362;-6.288;2023-02-01T03:39:34;102116.47;;;5.89;100.00
42587;BME280;28216;53.362;-6.288;2023-02-01T03:42:26;102107.66;;;5.92;100.00
42587;BME280;28216;53.362;-6.288;2023-02-01T03:45:01;102112.00;;;5.91;100.00
42587;BME280;28216;53.362;-6.288;2023-02-01T03:47:32;102104.31;;;5.90;100.00
42587;BME280;28216;53.362;-6.288;2023-02-01T03:50:06;102103.47;;;5.89;100.00
42587;BME280;28216;53.362;-6.288;2023-02-01T03:55:10;102094.88;;;5.87;100.00
42587;BME280;28216;53.362;-6.288;2023-02-01T03:57:44;102074.06;;;5.87;100.00
42587;BME280;28216;53.362;-6.288;2023-02-01T04:00:24;102074.84;;;5.89;100.00
42587;BME280;28216;53.362;-6.288;2023-02-01T04:02:51;102068.84;;;5.87;100.00
42587;BME280;28216;53.362;-6.288;2023-02-01T04:05:17;102072.28;;;5.88;100.00
42587;BME280;28216;53.362;-6.288;2023-02-01T04:07:43;102058.28;;;5.90;100.00
42587;BME280;28216;53.362;-6.288;2023-02-01T04:10:09;102066.66;;;5.95;100.00
42587;BME280;28216;53.362;-6.288;2023-02-01T04:12:35;102065.44;;;6.01;100.00
42587;BME280;28216;53.362;-6.288;2023-02-01T04:15:01;102058.81;;;6.10;100.00
42587;BME280;28216;53.362;-6.288;2023-02-01T04:17:26;102054.34;;;6.12;100.00
42587;BME280;28216;53.362;-6.288;2023-02-01T04:19:51;102059.25;;;6.16;100.00
42587;BME280;28216;53.362;-6.288;2023-02-01T04:22:17;102053.00;;;6.19;100.00
42587;BME280;28216;53.362;-6.288;2023-02-01T04:24:42;102054.56;;;6.21;100.00
42587;BME280;28216;53.362;-6.288;2023-02-01T04:27:08;102049.28;;;6.23;100.00
42587;BME280;28216;53.362;-6.288;2023-02-01T04:29:33;102051.78;;;6.24;100.00
42587;BME280;28216;53.362;-6.288;2023-02-01T04:31:59;102057.91;;;6.23;100.00
42587;BME280;28216;53.362;-6.288;2023-02-01T04:34:25;102042.28;;;6.23;100.00
42587;BME280;28216;53.362;-6.288;2023-02-01T04:36:51;102041.47;;;6.23;100.00
42587;BME280;28216;53.362;-6.288;2023-02-01T04:39:17;102051.03;;;6.22;100.00
42587;BME280;28216;53.362;-6.288;2023-02-01T04:41:42;102045.94;;;6.21;100.00
42587;BME280;28216;53.362;-6.288;2023-02-01T04:44:13;102046.03;;;6.19;100.00
42587;BME280;28216;53.362;-6.288;2023-02-01T04:46:39;102054.78;;;6.18;100.00
42587;BME280;28216;53.362;-6.288;2023-02-01T04:49:05;102055.63;;;6.19;100.00
42587;BME280;28216;53.362;-6.288;2023-02-01T04:51:30;102047.81;;;6.19;100.00
42587;BME280;28216;53.362;-6.288;2023-02-01T04:53:56;102050.31;;;6.20;100.00
42587;BME280;28216;53.362;-6.288;2023-02-01T04:56:22;102060.00;;;6.18;100.00
42587;BME280;28216;53.362;-6.288;2023-02-01T04:58:47;102053.09;;;6.17;100.00
42587;BME280;28216;53.362;-6.288;2023-02-01T05:01:13;102040.28;;;6.14;100.00
42587;BME280;28216;53.362;-6.288;2023-02-01T05:03:38;102035.06;;;6.14;100.00
42587;BME280;28216;53.362;-6.288;2023-02-01T05:06:03;102043.63;;;6.16;100.00
42587;BME280;28216;53.362;-6.288;2023-02-01T05:08:30;102044.66;;;6.14;100.00
42587;BME280;28216;53.362;-6.288;2023-02-01T05:10:56;102049.88;;;6.14;100.00
42587;BME280;28216;53.362;-6.288;2023-02-01T05:13:21;102048.19;;;6.13;100.00
42587;BME280;28216;53.362;-6.288;2023-02-01T05:16:05;102046.53;;;6.12;100.00
42587;BME280;28216;53.362;-6.288;2023-02-01T05:18:31;102047.47;;;6.11;100.00
42587;BME280;28216;53.362;-6.288;2023-02-01T05:20:56;102052.78;;;6.09;100.00
42587;BME280;28216;53.362;-6.288;2023-02-01T05:23:22;102051.09;;;6.08;100.00
42587;BME280;28216;53.362;-6.288;2023-02-01T05:25:47;102054.53;;;6.09;100.00
42587;BME280;28216;53.362;-6.288;2023-02-01T05:28:13;102055.38;;;6.09;100.00
42587;BME280;28216;53.362;-6.288;2023-02-01T05:30:38;102055.06;;;6.14;100.00
42587;BME280;28216;53.362;-6.288;2023-02-01T05:33:04;102053.94;;;6.18;100.00
42587;BME280;28216;53.362;-6.288;2023-02-01T05:35:29;102060.00;;;6.18;100.00
42587;BME280;28216;53.362;-6.288;2023-02-01T05:37:55;102060.91;;;6.17;100.00
42587;BME280;28216;53.362;-6.288;2023-02-01T05:40:21;102058.13;;;6.20;100.00
42587;BME280;28216;53.362;-6.288;2023-02-01T05:42:46;102062.38;;;6.21;100.00
42587;BME280;28216;53.362;-6.288;2023-02-01T05:45:12;102060.63;;;6.22;100.00
42587;BME280;28216;53.362;-6.288;2023-02-01T05:47:52;102077.19;;;6.21;100.00
42587;BME280;28216;53.362;-6.288;2023-02-01T05:50:17;102061.66;;;6.19;100.00
42587;BME280;28216;53.362;-6.288;2023-02-01T05:52:43;102052.19;;;6.18;100.00
42587;BME280;28216;53.362;-6.288;2023-02-01T05:55:09;102051.44;;;6.16;100.00
42587;BME280;28216;53.362;-6.288;2023-02-01T05:57:34;102065.50;;;6.14;100.00
42587;BME280;28216;53.362;-6.288;2023-02-01T06:00:00;102049.88;;;6.14;100.00
42587;BME280;28216;53.362;-6.288;2023-02-01T06:02:25;102064.75;;;6.12;100.00
42587;BME280;28216;53.362;-6.288;2023-02-01T06:04:51;102063.81;;;6.13;100.00
42587;BME280;28216;53.362;-6.288;2023-02-01T06:07:17;102057.03;;;6.10;100.00
42587;BME280;28216;53.362;-6.288;2023-02-01T06:09:42;102067.47;;;6.10;100.00
42587;BME280;28216;53.362;-6.288;2023-02-01T06:12:08;102063.91;;;6.11;100.00
42587;BME280;28216;53.362;-6.288;2023-02-01T06:14:33;102063.09;;;6.11;100.00
42587;BME280;28216;53.362;-6.288;2023-02-01T06:17:00;102064.03;;;6.10;100.00
42587;BME280;28216;53.362;-6.288;2023-02-01T06:19:26;102061.41;;;6.10;100.00
42587;BME280;28216;53.362;-6.288;2023-02-01T06:21:51;102064.13;;;6.08;100.00
42587;BME280;28216;53.362;-6.288;2023-02-01T06:24:17;102066.63;;;6.10;100.00
42587;BME280;28216;53.362;-6.288;2023-02-01T06:26:42;102070.16;;;6.09;100.00
42587;BME280;28216;53.362;-6.288;2023-02-01T06:29:11;102066.63;;;6.10;100.00
42587;BME280;28216;53.362;-6.288;2023-02-01T06:31:37;102068.28;;;6.11;100.00
42587;BME280;28216;53.362;-6.288;2023-02-01T06:34:02;102057.78;;;6.12;100.00
42587;BME280;28216;53.362;-6.288;2023-02-01T06:36:28;102054.25;;;6.13;100.00
42587;BME280;28216;53.362;-6.288;2023-02-01T06:38:55;102071.53;;;6.14;100.00
42587;BME280;28216;53.362;-6.288;2023-02-01T06:41:22;102066.31;;;6.14;100.00
42587;BME280;28216;53.362;-6.288;2023-02-01T06:43:47;102058.50;;;6.14;100.00
42587;BME280;28216;53.362;-6.288;2023-02-01T06:46:13;102066.31;;;6.14;100.00
42587;BME280;28216;53.362;-6.288;2023-02-01T06:48:40;102070.69;;;6.14;100.00
42587;BME280;28216;53.362;-6.288;2023-02-01T06:51:18;102076.75;;;6.14;100.00
42587;BME280;28216;53.362;-6.288;2023-02-01T06:53:43;102075.81;;;6.15;100.00
42587;BME280;28216;53.362;-6.288;2023-02-01T06:56:09;102068.72;;;6.17;100.00
42587;BME280;28216;53.362;-6.288;2023-02-01T06:58:34;102074.69;;;6.19;100.00
42587;BME280;28216;53.362;-6.288;2023-02-01T07:01:08;102060.72;;;6.20;100.00
42587;BME280;28216;53.362;-6.288;2023-02-01T07:03:34;102061.66;;;6.19;100.00
42587;BME280;28216;53.362;-6.288;2023-02-01T07:05:59;102059.78;;;6.21;100.00
42587;BME280;28216;53.362;-6.288;2023-02-01T07:08:29;102071.97;;;6.21;100.00
42587;BME280;28216;53.362;-6.288;2023-02-01T07:10:55;102065.63;;;6.25;100.00
42587;BME280;28216;53.362;-6.288;2023-02-01T07:13:20;102068.03;;;6.28;100.00
42587;BME280;28216;53.362;-6.288;2023-02-01T07:15:46;102067.09;;;6.29;100.00
42587;BME280;28216;53.362;-6.288;2023-02-01T07:18:15;102066.91;;;6.32;100.00
42587;BME280;28216;53.362;-6.288;2023-02-01T07:20:41;102064.19;;;6.33;100.00
42587;BME280;28216;53.362;-6.288;2023-02-01T07:23:09;102056.28;;;6.35;100.00
42587;BME280;28216;53.362;-6.288;2023-02-01T07:25:37;102063.16;;;6.36;100.00
42587;BME280;28216;53.362;-6.288;2023-02-01T07:28:03;102061.41;;;6.36;100.00
42587;BME280;28216;53.362;-6.288;2023-02-01T07:30:28;102062.22;;;6.37;100.00
42587;BME280;28216;53.362;-6.288;2023-02-01T07:32:53;102069.84;;;6.40;100.00
42587;BME280;28216;53.362;-6.288;2023-02-01T07:35:19;102070.56;;;6.42;100.00
42587;BME280;28216;53.362;-6.288;2023-02-01T07:37:45;102068.91;;;6.41;100.00
42587;BME280;28216;53.362;-6.288;2023-02-01T07:40:11;102075.06;;;6.40;100.00
42587;BME280;28216;53.362;-6.288;2023-02-01T07:42:36;102078.50;;;6.41;100.00
42587;BME280;28216;53.362;-6.288;2023-02-01T07:45:03;102073.38;;;6.39;100.00
42587;BME280;28216;53.362;-6.288;2023-02-01T07:47:28;102080.16;;;6.42;100.00
42587;BME280;28216;53.362;-6.288;2023-02-01T07:49:54;102080.81;;;6.45;100.00
42587;BME280;28216;53.362;-6.288;2023-02-01T07:52:19;102087.78;;;6.45;100.00
42587;BME280;28216;53.362;-6.288;2023-02-01T07:54:44;102085.06;;;6.46;100.00
42587;BME280;28216;53.362;-6.288;2023-02-01T07:57:10;102083.19;;;6.48;100.00
42587;BME280;28216;53.362;-6.288;2023-02-01T07:59:37;102090.09;;;6.49;100.00
42587;BME280;28216;53.362;-6.288;2023-02-01T08:02:22;102088.31;;;6.50;100.00
42587;BME280;28216;53.362;-6.288;2023-02-01T08:04:48;102093.31;;;6.53;100.00
42587;BME280;28216;53.362;-6.288;2023-02-01T08:07:14;102092.50;;;6.52;100.00
42587;BME280;28216;53.362;-6.288;2023-02-01T08:09:39;102099.38;;;6.53;100.00
42587;BME280;28216;53.362;-6.288;2023-02-01T08:12:05;102103.66;;;6.54;100.00
42587;BME280;28216;53.362;-6.288;2023-02-01T08:14:30;102107.19;;;6.53;100.00
42587;BME280;28216;53.362;-6.288;2023-02-01T08:16:56;102107.00;;;6.56;100.00
42587;BME280;28216;53.362;-6.288;2023-02-01T08:19:21;102115.63;;;6.57;100.00
42587;BME280;28216;53.362;-6.288;2023-02-01T08:21:47;102123.47;;;6.57;100.00
42587;BME280;28216;53.362;-6.288;2023-02-01T08:24:14;102118.16;;;6.58;100.00
42587;BME280;28216;53.362;-6.288;2023-02-01T08:26:39;102121.47;;;6.60;100.00
42587;BME280;28216;53.362;-6.288;2023-02-01T08:29:07;102124.00;;;6.62;100.00
42587;BME280;28216;53.362;-6.288;2023-02-01T08:31:33;102125.56;;;6.64;100.00
42587;BME280;28216;53.362;-6.288;2023-02-01T08:34:01;102121.91;;;6.67;100.00
42587;BME280;28216;53.362;-6.288;2023-02-01T08:36:30;102128.63;;;6.71;100.00
42587;BME280;28216;53.362;-6.288;2023-02-01T08:38:55;102131.78;;;6.76;100.00
42587;BME280;28216;53.362;-6.288;2023-02-01T08:41:24;102129.50;;;6.84;100.00
42587;BME280;28216;53.362;-6.288;2023-02-01T08:43:50;102136.81;;;6.92;100.00
42587;BME280;28216;53.362;-6.288;2023-02-01T08:46:16;102127.75;;;6.97;100.00
42587;BME280;28216;53.362;-6.288;2023-02-01T08:48:42;102133.06;;;7.09;100.00
42587;BME280;28216;53.362;-6.288;2023-02-01T08:51:11;102131.72;;;7.16;100.00
42587;BME280;28216;53.362;-6.288;2023-02-01T08:53:38;102129.53;;;7.22;100.00
42587;BME280;28216;53.362;-6.288;2023-02-01T08:56:07;102142.16;;;7.28;100.00
42587;BME280;28216;53.362;-6.288;2023-02-01T08:58:35;102144.34;;;7.34;100.00
42587;BME280;28216;53.362;-6.288;2023-02-01T09:01:09;102143.09;;;7.40;100.00
42587;BME280;28216;53.362;-6.288;2023-02-01T09:03:35;102147.25;;;7.43;100.00
42587;BME280;28216;53.362;-6.288;2023-02-01T09:06:02;102149.50;;;7.49;100.00
42587;BME280;28216;53.362;-6.288;2023-02-01T09:08:28;102155.31;;;7.52;100.00
42587;BME280;28216;53.362;-6.288;2023-02-01T09:10:59;102157.41;;;7.60;100.00
42587;BME280;28216;53.362;-6.288;2023-02-01T09:13:24;102158.66;;;7.67;100.00
42587;BME280;28216;53.362;-6.288;2023-02-01T09:15:51;102155.50;;;7.75;100.00
42587;BME280;28216;53.362;-6.288;2023-02-01T09:18:16;102158.75;;;7.78;100.00
42587;BME280;28216;53.362;-6.288;2023-02-01T09:20:43;102166.25;;;7.83;100.00
42587;BME280;28216;53.362;-6.288;2023-02-01T09:23:08;102171.38;;;7.84;100.00
42587;BME280;28216;53.362;-6.288;2023-02-01T09:25:34;102162.59;;;7.85;100.00
42587;BME280;28216;53.362;-6.288;2023-02-01T09:28:01;102171.38;;;7.84;100.00
42587;BME280;28216;53.362;-6.288;2023-02-01T09:30:29;102168.66;;;7.86;100.00
42587;BME280;28216;53.362;-6.288;2023-02-01T09:32:54;102181.19;;;7.93;100.00
42587;BME280;28216;53.362;-6.288;2023-02-01T09:35:19;102185.47;;;7.94;100.00
42587;BME280;28216;53.362;-6.288;2023-02-01T09:37:45;102172.81;;;8.01;100.00
42587;BME280;28216;53.362;-6.288;2023-02-01T09:40:14;102187.41;;;8.04;100.00
42587;BME280;28216;53.362;-6.288;2023-02-01T09:48:27;102187.72;;;8.12;100.00
42587;BME280;28216;53.362;-6.288;2023-02-01T09:50:56;102187.59;;;8.13;100.00
42587;BME280;28216;53.362;-6.288;2023-02-01T09:53:38;102192.00;;;8.13;100.00
42587;BME280;28216;53.362;-6.288;2023-02-01T09:56:21;102186.88;;;8.11;100.00
42587;BME280;28216;53.362;-6.288;2023-02-01T09:58:55;102184.06;;;8.14;100.00
42587;BME280;28216;53.362;-6.288;2023-02-01T10:01:24;102183.94;;;8.16;100.00
42587;BME280;28216;53.362;-6.288;2023-02-01T10:03:56;102188.22;;;8.17;100.00
42587;BME280;28216;53.362;-6.288;2023-02-01T10:06:36;102182.16;;;8.16;100.00
42587;BME280;28216;53.362;-6.288;2023-02-01T10:11:44;102187.81;;;8.23;100.00
42587;BME280;28216;53.362;-6.288;2023-02-01T10:16:51;102182.59;;;8.36;100.00
42587;BME280;28216;53.362;-6.288;2023-02-01T10:22:03;102174.63;;;8.61;100.00
42587;BME280;28216;53.362;-6.288;2023-02-01T10:24:49;102179.41;;;8.67;100.00
42587;BME280;28216;53.362;-6.288;2023-02-01T10:27:37;102172.19;;;8.71;100.00
42587;BME280;28216;53.362;-6.288;2023-02-01T10:32:39;102178.41;;;8.81;100.00
42587;BME280;28216;53.362;-6.288;2023-02-01T10:35:15;102176.28;;;8.86;100.00
42587;BME280;28216;53.362;-6.288;2023-02-01T10:37:42;102186.03;;;8.84;100.00
42587;BME280;28216;53.362;-6.288;2023-02-01T10:40:16;102183.41;;;8.84;100.00
42587;BME280;28216;53.362;-6.288;2023-02-01T10:42:45;102180.03;;;8.95;100.00
42587;BME280;28216;53.362;-6.288;2023-02-01T10:45:17;102193.59;;;9.00;100.00
42587;BME280;28216;53.362;-6.288;2023-02-01T10:47:44;102185.63;;;9.01;100.00
42587;BME280;28216;53.362;-6.288;2023-02-01T10:55:50;102199.16;;;9.30;100.00
42587;BME280;28216;53.362;-6.288;2023-02-01T11:00:48;102204.63;;;9.38;100.00
42587;BME280;28216;53.362;-6.288;2023-02-01T11:03:55;102198.22;;;9.42;100.00
42587;BME280;28216;53.362;-6.288;2023-02-01T11:06:39;102199.53;;;9.48;100.00
42587;BME280;28216;53.362;-6.288;2023-02-01T11:11:32;102219.41;;;9.50;100.00
42587;BME280;28216;53.362;-6.288;2023-02-01T11:13:59;102206.69;;;9.57;100.00
42587;BME280;28216;53.362;-6.288;2023-02-01T11:16:39;102217.38;;;9.54;100.00
42587;BME280;28216;53.362;-6.288;2023-02-01T11:19:05;102204.91;;;9.57;100.00
42587;BME280;28216;53.362;-6.288;2023-02-01T11:21:32;102211.91;;;9.57;100.00
42587;BME280;28216;53.362;-6.288;2023-02-01T11:24:03;102212.50;;;9.49;100.00
42587;BME280;28216;53.362;-6.288;2023-02-01T11:26:29;102211.44;;;9.52;100.00
42587;BME280;28216;53.362;-6.288;2023-02-01T11:31:27;102203.47;;;9.53;100.00
42587;BME280;28216;53.362;-6.288;2023-02-01T11:34:17;102194.28;;;9.48;100.00
42587;BME280;28216;53.362;-6.288;2023-02-01T11:36:46;102195.38;;;9.56;100.00
42587;BME280;28216;53.362;-6.288;2023-02-01T11:44:32;102177.75;;;9.59;100.00
42587;BME280;28216;53.362;-6.288;2023-02-01T11:49:47;102181.44;;;9.56;100.00
42587;BME280;28216;53.362;-6.288;2023-02-01T11:54:59;102173.13;;;9.62;100.00
42587;BME280;28216;53.362;-6.288;2023-02-01T11:57:55;102165.78;;;9.67;100.00
42587;BME280;28216;53.362;-6.288;2023-02-01T12:14:00;102152.06;;;9.86;100.00
42587;BME280;28216;53.362;-6.288;2023-02-01T12:20:02;102152.31;;;9.83;100.00
42587;BME280;28216;53.362;-6.288;2023-02-01T12:22:40;102154.94;;;9.83;100.00
42587;BME280;28216;53.362;-6.288;2023-02-01T12:35:28;102150.50;;;9.95;100.00
42587;BME280;28216;53.362;-6.288;2023-02-01T12:45:42;102138.47;;;10.03;100.00
42587;BME280;28216;53.362;-6.288;2023-02-01T12:51:08;102130.50;;;10.05;100.00
42587;BME280;28216;53.362;-6.288;2023-02-01T12:53:55;102134.53;;;10.09;100.00
42587;BME280;28216;53.362;-6.288;2023-02-01T12:56:46;102138.19;;;10.17;100.00
42587;BME280;28216;53.362;-6.288;2023-02-01T12:59:40;102131.66;;;10.23;100.00
42587;BME280;28216;53.362;-6.288;2023-02-01T13:02:34;102134.75;;;10.28;100.00
42587;BME280;28216;53.362;-6.288;2023-02-01T13:10:33;102133.28;;;10.35;100.00
42587;BME280;28216;53.362;-6.288;2023-02-01T13:15:41;102146.53;;;10.34;100.00
42587;BME280;28216;53.362;-6.288;2023-02-01T13:18:14;102131.03;;;10.31;100.00
42587;BME280;28216;53.362;-6.288;2023-02-01T13:20:51;102132.72;;;10.32;100.00
42587;BME280;28216;53.362;-6.288;2023-02-01T13:23:30;102139.63;;;10.33;100.00
42587;BME280;28216;53.362;-6.288;2023-02-01T13:25:56;102138.19;;;10.29;100.00
42587;BME280;28216;53.362;-6.288;2023-02-01T13:42:26;102126.75;;;10.41;100.00
42587;BME280;28216;53.362;-6.288;2023-02-01T13:44:59;102127.47;;;10.43;100.00
42587;BME280;28216;53.362;-6.288;2023-02-01T13:47:40;102128.75;;;10.48;100.00
42587;BME280;28216;53.362;-6.288;2023-02-01T13:53:16;102133.75;;;10.52;100.00
42587;BME280;28216;53.362;-6.288;2023-02-01T13:55:49;102124.72;;;10.44;100.00
42587;BME280;28216;53.362;-6.288;2023-02-01T13:58:22;102120.44;;;10.43;100.00
42587;BME280;28216;53.362;-6.288;2023-02-01T14:03:59;102128.41;;;10.42;100.00
42587;BME280;28216;53.362;-6.288;2023-02-01T14:09:15;102116.25;;;10.41;100.00
42587;BME280;28216;53.362;-6.288;2023-02-01T14:11:52;102128.16;;;10.45;100.00
42587;BME280;28216;53.362;-6.288;2023-02-01T14:19:36;102125.78;;;10.42;100.00
42587;BME280;28216;53.362;-6.288;2023-02-01T14:24:56;102128.41;;;10.42;100.00
42587;BME280;28216;53.362;-6.288;2023-02-01T14:27:28;102132.59;;;10.44;100.00
42587;BME280;28216;53.362;-6.288;2023-02-01T14:30:18;102118.63;;;10.44;100.00
42587;BME280;28216;53.362;-6.288;2023-02-01T14:32:53;102132.22;;;10.49;100.00
42587;BME280;28216;53.362;-6.288;2023-02-01T14:35:25;102125.28;;;10.48;100.00
42587;BME280;28216;53.362;-6.288;2023-02-01T14:37:53;102122.69;;;10.48;100.00
42587;BME280;28216;53.362;-6.288;2023-02-01T14:40:26;102119.47;;;10.44;100.00
42587;BME280;28216;53.362;-6.288;2023-02-01T14:42:56;102120.91;;;10.37;100.00
42587;BME280;28216;53.362;-6.288;2023-02-01T14:55:56;102106.50;;;10.32;100.00
42587;BME280;28216;53.362;-6.288;2023-02-01T15:01:13;102116.28;;;10.30;99.80
42587;BME280;28216;53.362;-6.288;2023-02-01T15:03:56;102118.66;;;10.33;99.74
42587;BME280;28216;53.362;-6.288;2023-02-01T15:06:39;102118.44;;;10.25;99.59
42587;BME280;28216;53.362;-6.288;2023-02-01T15:09:14;102118.19;;;10.28;99.80
42587;BME280;28216;53.362;-6.288;2023-02-01T15:14:27;102122.13;;;10.22;100.00
42587;BME280;28216;53.362;-6.288;2023-02-01T15:16:58;102123.19;;;10.19;100.00
42587;BME280;28216;53.362;-6.288;2023-02-01T15:19:26;102118.69;;;10.22;100.00
42587;BME280;28216;53.362;-6.288;2023-02-01T15:21:54;102124.88;;;10.21;100.00
42587;BME280;28216;53.362;-6.288;2023-02-01T15:24:30;102124.06;;;10.20;100.00
42587;BME280;28216;53.362;-6.288;2023-02-01T15:27:05;102114.63;;;10.17;100.00
42587;BME280;28216;53.362;-6.288;2023-02-01T15:29:31;102116.19;;;10.20;100.00
42587;BME280;28216;53.362;-6.288;2023-02-01T15:31:59;102116.41;;;10.17;100.00
42587;BME280;28216;53.362;-6.288;2023-02-01T15:34:47;102113.31;;;10.12;100.00
42587;BME280;28216;53.362;-6.288;2023-02-01T15:37:14;102123.81;;;10.12;100.00
42587;BME280;28216;53.362;-6.288;2023-02-01T15:45:21;102123.34;;;10.07;100.00
42587;BME280;28216;53.362;-6.288;2023-02-01T15:47:49;102120.13;;;10.03;100.00